Time;durP1;ratioP1;P1;durP2;ratioP2;P2;SDS_P1;SDS_P2;PMS_P1;PMS_P2;Temp;Humidity;BMP_temperature;BMP_pressure;BME280_temperature;BME280_humidity;BME280_pressure;Samples;Min_cycle;Max_cycle;Signal;HPM_P1;HPM_P2
2021/03/06 00:02:11;;;;;;;23.15;13.82;;;;;;;;;;10318281;28;20048;-61
2021/03/06 00:07:09;;;;;;;20.20;13.55;;;;;;;;;;10317465;28;20080;-60
2021/03/06 00:12:06;;;;;;;17.05;12.00;;;;;;;;;;10317131;28;20066;-60
2021/03/06 00:17:03;;;;;;;18.20;12.48;;;;;;;;;;10317322;28;20079;-60
2021/03/06 00:22:02;;;;;;;15.70;12.35;;;;;;;;;;10317724;28;20040;-60
2021/03/06 00:26:59;;;;;;;15.43;11.60;;;;;;;;;;10315293;28;20422;-60
2021/03/06 00:31:56;;;;;;;19.60;13.40;;;;;;;;;;10316670;28;20056;-60
2021/03/06 00:36:54;;;;;;;14.90;11.90;;;;;;;;;;10316871;28;20084;-60
2021/03/06 00:41:52;;;;;;;14.60;11.32;;;;;;;;;;10317100;28;20079;-60
2021/03/06 00:46:49;;;;;;;17.75;13.23;;;;;;;;;;10316486;28;20068;-60
2021/03/06 00:51:47;;;;;;;15.00;12.90;;;;;;;;;;10316711;28;20079;-60
2021/03/06 00:56:49;;;;;;;17.40;13.00;;;;;;;;;;10314894;28;20056;-59
2021/03/06 01:01:49;;;;;;;18.48;12.73;;;;;;;;;;10314993;28;20051;-59
2021/03/06 01:06:48;;;;;;;16.00;12.45;;;;;;;;;;10314765;28;20041;-60
2021/03/06 01:11:46;;;;;;;20.17;13.57;;;;;;;;;;10316309;28;20430;-60
2021/03/06 01:16:43;;;;;;;18.73;14.68;;;;;;;;;;10315208;28;20079;-60
2021/03/06 01:21:41;;;;;;;20.98;13.65;;;;;;;;;;10322751;28;20087;-60
2021/03/06 01:26:48;;;;;;;19.35;14.48;;;;;;;;;;10324053;28;20414;-60
2021/03/06 01:31:45;;;;;;;18.23;13.65;;;;;;;;;;10322360;28;20052;-60
2021/03/06 01:36:44;;;;;;;22.25;14.35;;;;;;;;;;10323435;28;20480;-59
2021/03/06 01:41:41;;;;;;;22.27;16.08;;;;;;;;;;10323463;28;20099;-59
2021/03/06 01:46:39;;;;;;;18.52;15.10;;;;;;;;;;10323071;28;20421;-59
2021/03/06 01:51:36;;;;;;;18.63;14.52;;;;;;;;;;10322904;28;20481;-60
2021/03/06 01:56:35;;;;;;;18.83;13.68;;;;;;;;;;10322583;28;20075;-59
2021/03/06 02:01:32;;;;;;;23.88;16.75;;;;;;;;;;10322529;28;20413;-60
2021/03/06 02:06:30;;;;;;;23.58;15.68;;;;;;;;;;10321860;28;20049;-60
2021/03/06 02:11:34;;;;;;;21.70;15.25;;;;;;;;;;10322115;28;20524;-60
2021/03/06 02:16:36;;;;;;;23.73;16.38;;;;;;;;;;10320924;28;20705;-61
2021/03/06 02:21:46;;;;;;;23.25;17.38;;;;;;;;;;10320822;28;20529;-61
2021/03/06 02:27:00;;;;;;;23.65;14.85;;;;;;;;;;10321743;28;20496;-61
2021/03/06 02:32:01;;;;;;;22.38;15.95;;;;;;;;;;10320691;28;20060;-60
2021/03/06 02:37:00;;;;;;;24.20;17.48;;;;;;;;;;10320662;28;20084;-60
2021/03/06 02:42:00;;;;;;;28.27;17.63;;;;;;;;;;10321112;28;20052;-60
2021/03/06 02:46:59;;;;;;;22.38;18.20;;;;;;;;;;10320942;28;20044;-60
2021/03/06 02:51:56;;;;;;;24.27;17.05;;;;;;;;;;10319442;28;20082;-60
2021/03/06 02:56:55;;;;;;;30.13;17.73;;;;;;;;;;10320201;28;20517;-60
2021/03/06 03:01:55;;;;;;;24.25;16.70;;;;;;;;;;10320536;28;20052;-60
2021/03/06 03:06:56;;;;;;;21.65;16.88;;;;;;;;;;10320011;28;20076;-60
2021/03/06 03:11:57;;;;;;;24.42;17.25;;;;;;;;;;10319092;28;20056;-61
2021/03/06 03:16:56;;;;;;;23.38;16.55;;;;;;;;;;10319694;28;20599;-59
2021/03/06 03:21:56;;;;;;;29.35;18.80;;;;;;;;;;10319240;28;20055;-60
2021/03/06 03:26:53;;;;;;;22.85;16.42;;;;;;;;;;10318049;28;20075;-60
2021/03/06 03:31:52;;;;;;;25.38;15.52;;;;;;;;;;10318437;28;20060;-59
2021/03/06 03:36:50;;;;;;;20.52;18.30;;;;;;;;;;10318725;28;20076;-61
2021/03/06 03:41:48;;;;;;;27.23;18.60;;;;;;;;;;10317633;28;20075;-59
2021/03/06 03:46:46;;;;;;;24.65;16.98;;;;;;;;;;10318487;28;20049;-60
2021/03/06 03:51:43;;;;;;;27.75;17.77;;;;;;;;;;10318547;28;20406;-60
2021/03/06 03:56:41;;;;;;;26.52;18.30;;;;;;;;;;10317918;28;20094;-59
2021/03/06 04:01:40;;;;;;;25.15;17.50;;;;;;;;;;10317875;28;20047;-60
2021/03/06 04:06:37;;;;;;;26.80;18.00;;;;;;;;;;10317786;28;20083;-61
2021/03/06 04:11:35;;;;;;;21.95;17.65;;;;;;;;;;10317709;28;20493;-60
2021/03/06 04:16:32;;;;;;;25.20;16.67;;;;;;;;;;10317607;28;20083;-60
2021/03/06 04:21:31;;;;;;;27.83;16.95;;;;;;;;;;10317104;28;20079;-60
2021/03/06 04:26:28;;;;;;;28.85;20.17;;;;;;;;;;10317508;28;20044;-60
2021/03/06 04:31:25;;;;;;;29.15;17.85;;;;;;;;;;10316763;28;20068;-60
2021/03/06 04:36:23;;;;;;;22.70;17.88;;;;;;;;;;10316990;28;20072;-60
2021/03/06 04:41:21;;;;;;;23.25;17.08;;;;;;;;;;10316861;28;20040;-60
2021/03/06 04:46:18;;;;;;;19.50;16.25;;;;;;;;;;10316597;28;20052;-58
2021/03/06 04:51:16;;;;;;;24.15;14.60;;;;;;;;;;10316693;28;20095;-59
2021/03/06 04:56:13;;;;;;;17.73;14.95;;;;;;;;;;10322946;28;20076;-61
2021/03/06 05:01:12;;;;;;;26.02;16.17;;;;;;;;;;10325152;28;20049;-60
2021/03/06 05:06:09;;;;;;;22.35;15.68;;;;;;;;;;10324524;28;20044;-60
2021/03/06 05:11:06;;;;;;;21.75;15.38;;;;;;;;;;10324389;28;20084;-61
2021/03/06 05:16:04;;;;;;;19.90;14.32;;;;;;;;;;10324208;28;20076;-60
2021/03/06 05:21:03;;;;;;;21.15;14.60;;;;;;;;;;10323866;28;20205;-59
2021/03/06 05:26:00;;;;;;;21.42;12.13;;;;;;;;;;10323771;28;20080;-60
2021/03/06 05:30:58;;;;;;;14.98;10.55;;;;;;;;;;10322828;28;20086;-60
2021/03/06 05:35:55;;;;;;;13.27;9.93;;;;;;;;;;10306243;28;20083;-61
2021/03/06 05:40:53;;;;;;;13.85;9.63;;;;;;;;;;10286070;28;20079;-60
2021/03/06 05:45:51;;;;;;;9.45;7.35;;;;;;;;;;10281125;28;20053;-61
2021/03/06 05:50:50;;;;;;;14.85;8.80;;;;;;;;;;10292994;28;20072;-59
2021/03/06 05:55:51;;;;;;;9.38;7.85;;;;;;;;;;10293511;28;20084;-58
2021/03/06 06:00:49;;;;;;;13.95;8.30;;;;;;;;;;10303258;28;20064;-59
2021/03/06 06:05:47;;;;;;;9.68;7.57;;;;;;;;;;10306537;28;20033;-60
2021/03/06 06:10:45;;;;;;;11.60;7.90;;;;;;;;;;10306016;28;20083;-59
2021/03/06 06:15:42;;;;;;;33.30;11.00;;;;;;;;;;10288525;28;20069;-60
2021/03/06 06:20:41;;;;;;;15.18;6.57;;;;;;;;;;10290518;28;20079;-59
2021/03/06 06:25:38;;;;;;;9.70;7.38;;;;;;;;;;10280587;28;20044;-61
2021/03/06 06:31:10;;;;;;;12.10;7.97;;;;;;;;;;10302233;28;20095;-59
2021/03/06 06:36:29;;;;;;;13.18;11.82;;;;;;;;;;10306004;28;20073;-59
2021/03/06 06:41:41;;;;;;;14.13;12.70;;;;;;;;;;10313934;28;20064;-59
2021/03/06 06:46:39;;;;;;;9.52;7.15;;;;;;;;;;10320192;28;20055;-59
2021/03/06 06:51:37;;;;;;;11.82;8.63;;;;;;;;;;10311764;28;20041;-59
2021/03/06 06:56:34;;;;;;;12.48;6.65;;;;;;;;;;10309736;28;20068;-59
2021/03/06 07:01:32;;;;;;;11.30;7.15;;;;;;;;;;10303045;28;20061;-60
2021/03/06 07:06:30;;;;;;;14.80;8.40;;;;;;;;;;10309786;28;20103;-58
2021/03/06 07:11:29;;;;;;;28.15;16.83;;;;;;;;;;10309168;28;20086;-57
2021/03/06 07:16:48;;;;;;;11.73;8.98;;;;;;;;;;10307260;28;20082;-59
2021/03/06 07:21:46;;;;;;;12.57;8.85;;;;;;;;;;10304456;28;20064;-58
2021/03/06 07:26:44;;;;;;;8.10;6.25;;;;;;;;;;10305450;28;20076;-59
2021/03/06 07:31:41;;;;;;;30.55;23.52;;;;;;;;;;10298462;28;20556;-59
2021/03/06 07:36:41;;;;;;;38.72;20.33;;;;;;;;;;10307298;28;20481;-59
2021/03/06 07:41:40;;;;;;;14.02;10.88;;;;;;;;;;10299703;28;20521;-57
2021/03/06 07:46:38;;;;;;;18.77;10.88;;;;;;;;;;10312080;28;20068;-58
2021/03/06 07:51:37;;;;;;;10.82;9.55;;;;;;;;;;10316566;28;20068;-59
2021/03/06 07:56:36;;;;;;;18.02;14.35;;;;;;;;;;10317398;28;20079;-58
2021/03/06 08:01:52;;;;;;;13.00;9.18;;;;;;;;;;10296552;28;20076;-59
2021/03/06 08:07:10;;;;;;;15.55;13.48;;;;;;;;;;10325315;28;20044;-53
2021/03/06 08:12:07;;;;;;;20.60;15.43;;;;;;;;;;10294436;28;20114;-59
2021/03/06 08:17:19;;;;;;;8.43;6.85;;;;;;;;;;10292936;28;20076;-59
2021/03/06 08:22:18;;;;;;;15.48;9.07;;;;;;;;;;10296310;28;20068;-60
2021/03/06 08:27:19;;;;;;;20.98;14.50;;;;;;;;;;10316682;28;20049;-59
2021/03/06 08:32:25;;;;;;;30.33;19.77;;;;;;;;;;10316327;28;20057;-59
2021/03/06 08:37:33;;;;;;;9.15;7.90;;;;;;;;;;10301571;28;20084;-58
2021/03/06 08:42:31;;;;;;;16.63;12.40;;;;;;;;;;10282861;28;20072;-58
2021/03/06 08:47:29;;;;;;;38.40;25.27;;;;;;;;;;10284918;28;20040;-57
2021/03/06 08:52:27;;;;;;;14.98;8.73;;;;;;;;;;10314410;28;20051;-57
2021/03/06 08:57:26;;;;;;;21.48;16.02;;;;;;;;;;10315387;28;20521;-61
2021/03/06 09:02:36;;;;;;;17.70;12.43;;;;;;;;;;10315390;28;20095;-61
2021/03/06 09:07:35;;;;;;;116.13;88.13;;;;;;;;;;10313349;28;20465;-61
2021/03/06 09:12:46;;;;;;;20.05;13.40;;;;;;;;;;10314561;28;20442;-63
2021/03/06 09:17:47;;;;;;;18.25;12.63;;;;;;;;;;10315285;28;20080;-61
2021/03/06 09:22:46;;;;;;;30.67;18.42;;;;;;;;;;10313698;28;20091;-62
2021/03/06 09:27:45;;;;;;;17.90;12.68;;;;;;;;;;10315217;28;20064;-62
2021/03/06 09:32:58;;;;;;;26.55;17.50;;;;;;;;;;10314248;28;20049;-60
2021/03/06 09:38:09;;;;;;;31.27;21.30;;;;;;;;;;10314610;28;20092;-62
2021/03/06 09:43:07;;;;;;;32.72;20.88;;;;;;;;;;10321263;28;20353;-60
2021/03/06 09:48:06;;;;;;;152.75;96.00;;;;;;;;;;10321520;28;20409;-62
2021/03/06 09:53:13;;;;;;;96.72;46.47;;;;;;;;;;10322513;28;20076;-60
2021/03/06 09:58:21;;;;;;;33.00;20.55;;;;;;;;;;10321799;28;20532;-61
2021/03/06 10:03:28;;;;;;;27.27;18.58;;;;;;;;;;10322071;28;20041;-61
2021/03/06 10:08:26;;;;;;;21.98;15.48;;;;;;;;;;10322160;28;20063;-60
2021/03/06 10:13:25;;;;;;;31.35;20.42;;;;;;;;;;10320894;28;20068;-59
2021/03/06 10:18:22;;;;;;;44.95;31.70;;;;;;;;;;10320928;28;20083;-61
2021/03/06 10:23:40;;;;;;;30.75;19.33;;;;;;;;;;10320801;28;20041;-62
2021/03/06 10:28:38;;;;;;;13.82;7.97;;;;;;;;;;10315500;28;20099;-61
2021/03/06 10:33:40;;;;;;;8.73;7.80;;;;;;;;;;10320486;28;20072;-61
2021/03/06 10:38:38;;;;;;;11.80;9.82;;;;;;;;;;10319166;28;20076;-61
2021/03/06 10:43:38;;;;;;;8.95;8.05;;;;;;;;;;10316491;28;20072;-61
2021/03/06 10:48:37;;;;;;;9.27;7.65;;;;;;;;;;10315517;28;20064;-61
2021/03/06 10:53:35;;;;;;;13.93;11.40;;;;;;;;;;10316508;28;20090;-62
2021/03/06 10:58:43;;;;;;;16.15;11.98;;;;;;;;;;10318926;28;20071;-62
2021/03/06 11:04:00;;;;;;;23.15;17.45;;;;;;;;;;10319459;28;20067;-62
2021/03/06 11:08:58;;;;;;;14.35;7.50;;;;;;;;;;10318654;28;20429;-61
2021/03/06 11:14:21;;;;;;;15.65;10.60;;;;;;;;;;10318840;28;20485;-61
2021/03/06 11:19:19;;;;;;;16.63;12.25;;;;;;;;;;10318589;28;20477;-63
2021/03/06 11:24:17;;;;;;;24.95;18.55;;;;;;;;;;10310449;28;20068;-60
2021/03/06 11:29:14;;;;;;;14.77;10.77;;;;;;;;;;10287794;28;20093;-60
2021/03/06 11:34:24;;;;;;;13.48;10.85;;;;;;;;;;10291278;28;20068;-62
2021/03/06 11:39:21;;;;;;;13.70;11.25;;;;;;;;;;10293468;28;20080;-60
2021/03/06 11:44:19;;;;;;;10.57;8.60;;;;;;;;;;10282286;28;20068;-60
2021/03/06 11:49:16;;;;;;;13.50;8.13;;;;;;;;;;10304296;28;20080;-62
2021/03/06 11:54:14;;;;;;;19.35;9.73;;;;;;;;;;10293729;28;20072;-61
2021/03/06 11:59:11;;;;;;;14.20;9.32;;;;;;;;;;10292554;28;20075;-59
2021/03/06 12:04:09;;;;;;;9.50;8.50;;;;;;;;;;10304695;28;20036;-58
2021/03/06 12:09:07;;;;;;;14.57;10.73;;;;;;;;;;10305411;28;20052;-60
2021/03/06 12:14:05;;;;;;;29.00;16.98;;;;;;;;;;10297747;28;20060;-61
2021/03/06 12:19:03;;;;;;;8.60;7.70;;;;;;;;;;10287662;28;20071;-60
2021/03/06 12:24:01;;;;;;;12.30;10.85;;;;;;;;;;10281558;28;20039;-60
2021/03/06 12:28:58;;;;;;;9.45;7.22;;;;;;;;;;10291991;28;20084;-60
2021/03/06 12:33:56;;;;;;;10.32;7.47;;;;;;;;;;10297346;28;20064;-61
2021/03/06 12:38:54;;;;;;;12.55;11.38;;;;;;;;;;10288776;28;20183;-60
2021/03/06 12:43:52;;;;;;;8.30;7.13;;;;;;;;;;10284636;28;20725;-60
2021/03/06 12:48:49;;;;;;;17.33;12.65;;;;;;;;;;10315802;28;20040;-62
2021/03/06 12:53:47;;;;;;;23.25;16.63;;;;;;;;;;10316214;28;20044;-60
2021/03/06 12:58:45;;;;;;;21.00;12.43;;;;;;;;;;10315712;28;20082;-62
2021/03/06 13:03:42;;;;;;;13.20;11.05;;;;;;;;;;10315708;28;20437;-61
2021/03/06 13:08:39;;;;;;;15.65;11.57;;;;;;;;;;10315740;28;20068;-61
2021/03/06 13:13:38;;;;;;;11.93;9.43;;;;;;;;;;10317282;28;20041;-60
2021/03/06 13:18:35;;;;;;;11.57;8.18;;;;;;;;;;10322321;28;20076;-60
2021/03/06 13:23:33;;;;;;;17.63;12.65;;;;;;;;;;10323078;28;20082;-62
2021/03/06 13:28:31;;;;;;;13.32;11.13;;;;;;;;;;10322479;28;20088;-61
2021/03/06 13:33:29;;;;;;;18.50;14.13;;;;;;;;;;10322693;28;20075;-61
2021/03/06 13:38:28;;;;;;;42.20;19.25;;;;;;;;;;10322429;28;20092;-61
2021/03/06 13:43:25;;;;;;;21.48;16.65;;;;;;;;;;10322341;28;20036;-61
2021/03/06 13:48:23;;;;;;;13.63;9.65;;;;;;;;;;10322513;28;20098;-61
2021/03/06 13:53:35;;;;;;;17.15;10.80;;;;;;;;;;10322513;28;20053;-61
2021/03/06 13:58:33;;;;;;;23.15;14.90;;;;;;;;;;10321495;28;20518;-60
2021/03/06 14:03:30;;;;;;;18.05;10.52;;;;;;;;;;10320922;28;20083;-59
2021/03/06 14:08:28;;;;;;;23.25;15.18;;;;;;;;;;10321519;28;20048;-61
2021/03/06 14:13:26;;;;;;;35.65;19.13;;;;;;;;;;10321122;28;20458;-62
2021/03/06 14:18:23;;;;;;;29.95;18.98;;;;;;;;;;10321267;28;20080;-61
2021/03/06 14:23:21;;;;;;;26.77;17.05;;;;;;;;;;10318834;28;20072;-61
2021/03/06 14:28:19;;;;;;;31.35;21.63;;;;;;;;;;10319221;28;20051;-61
2021/03/06 14:33:17;;;;;;;21.15;15.10;;;;;;;;;;10319959;28;20076;-60
2021/03/06 14:38:14;;;;;;;23.73;14.68;;;;;;;;;;10320152;28;20080;-62
2021/03/06 14:43:12;;;;;;;32.63;18.83;;;;;;;;;;10320195;28;20477;-61
2021/03/06 14:48:09;;;;;;;29.48;18.70;;;;;;;;;;10319893;28;20095;-61
2021/03/06 14:53:07;;;;;;;42.67;21.45;;;;;;;;;;10320551;28;20049;-62
2021/03/06 14:58:05;;;;;;;24.02;12.80;;;;;;;;;;10319047;28;20130;-61
2021/03/06 15:03:03;;;;;;;28.17;17.65;;;;;;;;;;10319155;28;20044;-61
2021/03/06 15:08:01;;;;;;;27.60;18.42;;;;;;;;;;10318976;28;20043;-61
2021/03/06 15:13:00;;;;;;;34.17;20.70;;;;;;;;;;10318807;28;20040;-62
2021/03/06 15:17:59;;;;;;;27.33;16.65;;;;;;;;;;10319068;28;20111;-61
2021/03/06 15:22:56;;;;;;;55.83;26.73;;;;;;;;;;10319360;28;20083;-61
2021/03/06 15:27:54;;;;;;;31.83;21.90;;;;;;;;;;10318034;28;20044;-61
2021/03/06 15:32:52;;;;;;;100.38;50.20;;;;;;;;;;10317864;28;20103;-61
2021/03/06 15:37:51;;;;;;;42.35;29.38;;;;;;;;;;10312536;28;20083;-60
2021/03/06 15:42:48;;;;;;;41.95;28.63;;;;;;;;;;10292366;28;20076;-60
2021/03/06 15:47:46;;;;;;;37.28;23.10;;;;;;;;;;10290665;28;20067;-61
2021/03/06 15:52:44;;;;;;;23.25;16.90;;;;;;;;;;10296657;28;20088;-60
2021/03/06 15:57:42;;;;;;;102.07;51.75;;;;;;;;;;10309974;28;20076;-61
2021/03/06 16:02:39;;;;;;;60.42;31.88;;;;;;;;;;10290692;28;20079;-60
2021/03/06 16:07:52;;;;;;;90.35;45.20;;;;;;;;;;10283594;28;20506;-60
2021/03/06 16:12:49;;;;;;;57.13;32.42;;;;;;;;;;10276006;28;20487;-61
2021/03/06 16:17:46;;;;;;;62.05;40.13;;;;;;;;;;10275704;28;20080;-61
2021/03/06 16:22:44;;;;;;;37.25;25.00;;;;;;;;;;10275614;28;20076;-61
2021/03/06 16:27:42;;;;;;;35.13;22.48;;;;;;;;;;10275896;28;20445;-60
2021/03/06 16:32:40;;;;;;;35.50;23.65;;;;;;;;;;10275904;28;20048;-61
2021/03/06 16:37:37;;;;;;;30.08;24.55;;;;;;;;;;10275000;28;20084;-60
2021/03/06 16:42:35;;;;;;;59.13;38.00;;;;;;;;;;10275049;28;20052;-61
2021/03/06 16:47:33;;;;;;;33.67;25.75;;;;;;;;;;10275736;28;20075;-60
2021/03/06 16:52:31;;;;;;;61.63;37.30;;;;;;;;;;10297715;28;20087;-59
2021/03/06 16:57:28;;;;;;;48.00;30.73;;;;;;;;;;10324756;28;20091;-60
2021/03/06 17:02:37;;;;;;;21.38;14.23;;;;;;;;;;10324042;28;20484;-60
2021/03/06 17:07:35;;;;;;;44.45;26.73;;;;;;;;;;10323478;28;20502;-59
2021/03/06 17:12:32;;;;;;;48.53;27.05;;;;;;;;;;10323317;28;20041;-60
2021/03/06 17:17:30;;;;;;;39.38;25.88;;;;;;;;;;10323007;28;20076;-61
2021/03/06 17:22:28;;;;;;;15.65;11.57;;;;;;;;;;10323106;28;20086;-60
2021/03/06 17:27:26;;;;;;;16.80;10.20;;;;;;;;;;10320543;28;20068;-61
2021/03/06 17:32:23;;;;;;;20.42;13.75;;;;;;;;;;10316462;28;20091;-61
2021/03/06 17:37:21;;;;;;;16.02;10.25;;;;;;;;;;10315718;28;20087;-61
2021/03/06 17:42:20;;;;;;;34.03;17.80;;;;;;;;;;10315689;28;20091;-61
2021/03/06 17:47:17;;;;;;;43.83;21.98;;;;;;;;;;10321208;28;20462;-60
2021/03/06 17:52:14;;;;;;;12.15;8.30;;;;;;;;;;10322777;28;20077;-59
2021/03/06 17:57:12;;;;;;;9.60;7.10;;;;;;;;;;10321380;28;20052;-59
2021/03/06 18:02:10;;;;;;;26.70;13.57;;;;;;;;;;10319642;28;20055;-59
2021/03/06 18:07:08;;;;;;;15.43;11.35;;;;;;;;;;10322395;28;20056;-60
2021/03/06 18:12:05;;;;;;;14.52;10.90;;;;;;;;;;10322268;28;20072;-59
2021/03/06 18:17:03;;;;;;;19.95;13.60;;;;;;;;;;10320862;28;20467;-61
2021/03/06 18:22:01;;;;;;;24.48;17.23;;;;;;;;;;10322064;28;20076;-59
2021/03/06 18:26:59;;;;;;;55.03;35.30;;;;;;;;;;10321716;28;20064;-61
2021/03/06 18:31:56;;;;;;;69.10;38.58;;;;;;;;;;10320651;28;20477;-58
2021/03/06 18:36:54;;;;;;;56.25;34.67;;;;;;;;;;10321190;28;20075;-59
2021/03/06 18:41:52;;;;;;;61.05;36.20;;;;;;;;;;10320949;28;20501;-59
2021/03/06 18:46:49;;;;;;;60.88;38.38;;;;;;;;;;10320376;28;20044;-59
2021/03/06 18:51:47;;;;;;;57.75;36.75;;;;;;;;;;10319259;28;20528;-59
2021/03/06 18:56:45;;;;;;;28.27;20.77;;;;;;;;;;10320409;28;20473;-59
2021/03/06 19:01:43;;;;;;;25.00;18.38;;;;;;;;;;10320135;28;20489;-59
2021/03/06 19:06:40;;;;;;;25.85;17.55;;;;;;;;;;10319924;28;20540;-59
2021/03/06 19:11:38;;;;;;;24.98;18.15;;;;;;;;;;10319677;28;20056;-57
2021/03/06 19:16:35;;;;;;;31.75;21.52;;;;;;;;;;10317950;28;20514;-60
2021/03/06 19:21:33;;;;;;;15.68;11.75;;;;;;;;;;10319352;28;20442;-60
2021/03/06 19:26:31;;;;;;;15.68;10.38;;;;;;;;;;10319391;28;20083;-60
2021/03/06 19:31:28;;;;;;;19.08;14.85;;;;;;;;;;10318494;28;20065;-60
2021/03/06 19:36:25;;;;;;;29.80;20.35;;;;;;;;;;10318771;28;20044;-61
2021/03/06 19:41:24;;;;;;;58.25;36.53;;;;;;;;;;10318541;28;20072;-60
2021/03/06 19:46:21;;;;;;;66.68;37.50;;;;;;;;;;10318381;28;20620;-59
2021/03/06 19:51:20;;;;;;;59.83;36.63;;;;;;;;;;10317230;28;20071;-60
2021/03/06 19:56:17;;;;;;;45.80;28.77;;;;;;;;;;10317846;28;20047;-60
2021/03/06 20:01:17;;;;;;;36.88;26.23;;;;;;;;;;10317789;28;20198;-59
2021/03/06 20:06:15;;;;;;;48.05;30.98;;;;;;;;;;10317835;28;20552;-61
2021/03/06 20:11:13;;;;;;;41.63;30.40;;;;;;;;;;10317455;28;20052;-61
2021/03/06 20:16:10;;;;;;;45.50;29.88;;;;;;;;;;10317360;28;20051;-59
2021/03/06 20:21:09;;;;;;;33.83;22.75;;;;;;;;;;10315636;28;20056;-62
2021/03/06 20:26:07;;;;;;;25.75;19.83;;;;;;;;;;10316794;28;20082;-59
2021/03/06 20:31:04;;;;;;;44.10;29.20;;;;;;;;;;10316638;28;20053;-60
2021/03/06 20:36:02;;;;;;;46.17;29.27;;;;;;;;;;10316132;28;20033;-60
2021/03/06 20:41:14;;;;;;;39.20;26.20;;;;;;;;;;10316695;28;20521;-59
2021/03/06 20:46:11;;;;;;;32.58;25.02;;;;;;;;;;10316763;28;20044;-60
2021/03/06 20:51:09;;;;;;;26.52;18.05;;;;;;;;;;10316697;28;20072;-60
2021/03/06 20:56:06;;;;;;;50.35;35.05;;;;;;;;;;10315891;28;20075;-60
2021/03/06 21:01:04;;;;;;;45.33;35.25;;;;;;;;;;10315756;28;20072;-60
2021/03/06 21:06:02;;;;;;;32.72;23.45;;;;;;;;;;10316906;28;20060;-59
2021/03/06 21:11:00;;;;;;;34.75;22.30;;;;;;;;;;10316154;28;20489;-59
2021/03/06 21:15:57;;;;;;;31.05;20.48;;;;;;;;;;10316122;28;20045;-60
2021/03/06 21:20:56;;;;;;;32.38;24.25;;;;;;;;;;10315159;28;20100;-60
2021/03/06 21:25:53;;;;;;;35.67;24.52;;;;;;;;;;10316045;28;20414;-59
2021/03/06 21:30:54;;;;;;;99.57;63.90;;;;;;;;;;10315498;28;20095;-60
2021/03/06 21:35:54;;;;;;;31.05;21.38;;;;;;;;;;10319622;28;20091;-59
2021/03/06 21:40:52;;;;;;;35.72;24.52;;;;;;;;;;10323104;28;20076;-59
2021/03/06 21:45:50;;;;;;;27.30;18.27;;;;;;;;;;10322943;28;20126;-60
2021/03/06 21:50:48;;;;;;;25.35;18.40;;;;;;;;;;10322709;28;20461;-60
2021/03/06 21:55:45;;;;;;;33.38;24.67;;;;;;;;;;10321653;28;20087;-60
2021/03/06 22:00:43;;;;;;;25.38;18.63;;;;;;;;;;10322186;28;20076;-60
2021/03/06 22:05:40;;;;;;;27.45;20.85;;;;;;;;;;10323210;28;20053;-60
2021/03/06 22:10:38;;;;;;;55.45;39.63;;;;;;;;;;10321844;28;20068;-61
2021/03/06 22:15:35;;;;;;;30.10;20.63;;;;;;;;;;10320307;28;20418;-60
2021/03/06 22:20:33;;;;;;;29.73;20.95;;;;;;;;;;10320146;28;20076;-61
2021/03/06 22:25:31;;;;;;;23.02;18.73;;;;;;;;;;10321249;28;20076;-61
2021/03/06 22:30:28;;;;;;;19.95;17.65;;;;;;;;;;10319611;28;20086;-60
2021/03/06 22:35:25;;;;;;;16.70;13.02;;;;;;;;;;10320371;28;20083;-58
2021/03/06 22:40:23;;;;;;;15.40;11.40;;;;;;;;;;10319657;28;20064;-60
2021/03/06 22:45:21;;;;;;;12.65;11.00;;;;;;;;;;10318921;28;20421;-60
2021/03/06 22:50:18;;;;;;;15.85;12.80;;;;;;;;;;10320422;28;20096;-60
2021/03/06 22:55:17;;;;;;;20.35;12.90;;;;;;;;;;10320225;28;20036;-60
2021/03/06 23:00:31;;;;;;;18.23;13.68;;;;;;;;;;10319132;28;20075;-61
2021/03/06 23:05:29;;;;;;;16.98;13.35;;;;;;;;;;10319162;28;20084;-62
2021/03/06 23:10:26;;;;;;;18.52;14.32;;;;;;;;;;10319732;28;20040;-60
2021/03/06 23:15:25;;;;;;;20.00;13.90;;;;;;;;;;10319518;28;20059;-62
2021/03/06 23:20:23;;;;;;;18.58;14.40;;;;;;;;;;10319348;28;20084;-60
2021/03/06 23:25:21;;;;;;;17.90;14.48;;;;;;;;;;10319856;28;20513;-60
2021/03/06 23:30:19;;;;;;;22.90;18.88;;;;;;;;;;10318704;28;20056;-60
2021/03/06 23:35:17;;;;;;;28.45;16.92;;;;;;;;;;10318196;28;20079;-60
2021/03/06 23:40:15;;;;;;;27.05;17.55;;;;;;;;;;10318191;28;20068;-60
2021/03/06 23:45:16;;;;;;;34.17;22.13;;;;;;;;;;10318367;28;20040;-62
2021/03/06 23:50:14;;;;;;;24.08;16.50;;;;;;;;;;10318107;28;20087;-61
2021/03/06 23:55:12;;;;;;;19.85;15.57;;;;;;;;;;10318134;28;20071;-60
